KLNA/LNA METAR and TAF weather

Enter ICAO airport designator
Station Type Date Time Source
KLNA METAR 2019/08/24 18:15 UTC NOAA

KLNA 241815Z AUTO 22004KT 1 1/2SM +RA BKN014 BKN020 OVC028 28/26 A2995 RMK AO2 VIS 1/2V5 LTG DSNT ALQS T02760263


Station Type Date Time Source
KLNA Decoded METAR 2019/08/24 18:15 UTC NOAA

Station name not available
Aug 24, 2019 - 02:15 PM EDT / 2019.08.24 1815 UTC
Wind: from the SW (220 degrees) at 5 MPH (4 KT):0
Visibility: 1 1/2 mile(s):0
Sky conditions: overcast
Weather: heavy rain; Lightning observed
Temperature: 81.7 F (27.6 C)
Dew Point: 79.3 F (26.3 C)
Relative Humidity: 92%
Pressure (altimeter): 29.95 in. Hg (1014 hPa)
ob: KLNA 241815Z AUTO 22004KT 1 1/2SM +RA BKN014 BKN020 OVC028 28/26 A2995 RMK AO2 VIS 1/2V5 LTG DSNT ALQS T02760263
cycle: 18

Station Type Date Time Source
KLNA TAF UTC NOAA

Error!

Example: see airport list